createdAt,value
2018-07-05T00:01:40.343Z,35.94
2018-07-05T00:07:01.707Z,35.24
2018-07-05T00:12:17.097Z,35.39
2018-07-05T00:17:38.323Z,36.10
2018-07-05T00:22:59.894Z,36.09
2018-07-05T00:28:21.274Z,35.86
2018-07-05T00:33:42.751Z,35.99
2018-07-05T00:39:04.821Z,35.38
2018-07-05T00:44:26.157Z,35.70
2018-07-05T00:49:47.690Z,35.35
2018-07-05T00:55:09.217Z,35.97
2018-07-05T01:00:30.814Z,35.55
2018-07-05T01:05:52.363Z,35.64
2018-07-05T01:11:13.662Z,35.46
2018-07-05T01:16:35.153Z,35.96
2018-07-05T01:21:56.737Z,35.49
2018-07-05T01:27:18.239Z,35.61
2018-07-05T01:32:39.954Z,35.87
2018-07-05T01:38:01.525Z,35.92
2018-07-05T01:43:22.802Z,35.71
2018-07-05T01:48:44.278Z,35.75
2018-07-05T01:54:05.797Z,35.45
2018-07-05T01:59:27.370Z,35.64
2018-07-05T02:04:48.689Z,35.51
2018-07-05T02:10:10.177Z,35.77
2018-07-05T02:15:31.503Z,35.73
2018-07-05T02:20:53.113Z,36.23
2018-07-05T02:26:15.568Z,35.58
2018-07-05T02:31:37.006Z,36.14
2018-07-05T02:36:58.562Z,36.21
2018-07-05T02:42:19.979Z,35.65
2018-07-05T02:47:41.366Z,35.92
2018-07-05T02:53:03.030Z,36.14
2018-07-05T02:58:18.521Z,36.16
2018-07-05T03:03:39.790Z,35.80
2018-07-05T03:09:01.325Z,35.94
2018-07-05T03:14:22.705Z,36.48
2018-07-05T03:19:44.100Z,35.82
2018-07-05T03:25:05.525Z,35.89
2018-07-05T03:30:26.962Z,35.78
2018-07-05T03:35:48.511Z,35.90
2018-07-05T03:41:10.019Z,36.58
2018-07-05T03:46:31.466Z,36.39
2018-07-05T03:51:52.909Z,36.75
2018-07-05T03:57:14.341Z,36.74
2018-07-05T04:02:36.013Z,37.06
2018-07-05T04:07:57.265Z,36.56
2018-07-05T04:13:18.618Z,36.68
2018-07-05T04:18:40.052Z,36.32
2018-07-05T04:23:55.486Z,36.54
2018-07-05T04:29:17.110Z,36.61
2018-07-05T04:34:38.655Z,36.56
2018-07-05T04:40:00.013Z,35.91
2018-07-05T04:45:21.369Z,36.14
2018-07-05T04:50:42.874Z,36.43
2018-07-05T04:56:04.089Z,36.54
2018-07-05T05:01:25.698Z,36.01
2018-07-05T05:06:47.214Z,36.85
2018-07-05T05:12:08.699Z,36.50
2018-07-05T05:17:24.153Z,36.23
2018-07-05T05:22:45.564Z,36.32
2018-07-05T05:28:06.944Z,37.00
2018-07-05T05:33:22.430Z,37.03
2018-07-05T05:38:43.737Z,36.61
2018-07-05T05:44:05.251Z,37.13
2018-07-05T05:49:26.715Z,37.49
2018-07-05T05:54:48.107Z,37.71
2018-07-05T06:00:09.574Z,37.17
2018-07-05T06:05:31.078Z,37.22
2018-07-05T06:10:52.566Z,37.75
2018-07-05T06:16:14.056Z,37.14
2018-07-05T06:21:35.793Z,37.77
2018-07-05T06:26:57.156Z,37.37
2018-07-05T06:32:18.421Z,37.59
2018-07-05T06:37:40.041Z,38.32
2018-07-05T06:43:01.418Z,37.98
2018-07-05T06:48:22.837Z,38.31
2018-07-05T06:53:44.405Z,38.31
2018-07-05T06:59:05.878Z,38.36
2018-07-05T07:04:27.385Z,38.31
2018-07-05T07:09:48.723Z,37.90
2018-07-05T07:15:10.314Z,37.81
2018-07-05T07:20:31.675Z,38.45
2018-07-05T07:25:53.332Z,38.60
2018-07-05T07:31:14.732Z,38.22
2018-07-05T07:36:36.196Z,38.62
2018-07-05T07:41:49.103Z,38.13
2018-07-05T07:46:52.135Z,38.71
2018-07-05T07:51:55.087Z,38.34
2018-07-05T07:56:58.040Z,38.23
2018-07-05T08:02:00.896Z,38.32
2018-07-05T08:07:03.915Z,38.31
2018-07-05T08:12:07.039Z,38.35
2018-07-05T08:17:10.053Z,38.32
2018-07-05T08:22:12.981Z,38.95
2018-07-05T08:27:15.830Z,38.23
2018-07-05T08:32:18.756Z,38.86
2018-07-05T08:37:21.646Z,38.88
2018-07-05T08:42:24.514Z,38.66
2018-07-05T08:47:27.606Z,38.24
2018-07-05T08:52:30.567Z,38.80
2018-07-05T08:57:33.436Z,38.55
2018-07-05T09:02:36.445Z,38.89
2018-07-05T09:07:39.628Z,38.83
2018-07-05T09:12:42.534Z,38.24
2018-07-05T09:17:45.603Z,38.75
2018-07-05T09:22:48.425Z,38.38
2018-07-05T09:27:51.314Z,38.52
2018-07-05T09:32:54.173Z,38.20
2018-07-05T09:37:57.384Z,38.67
2018-07-05T09:43:00.294Z,38.62
2018-07-05T09:48:03.362Z,38.67
2018-07-05T09:53:06.269Z,38.89
2018-07-05T09:58:09.524Z,38.88
2018-07-05T10:03:12.465Z,38.48
2018-07-05T10:08:16.792Z,39.25
2018-07-05T10:13:19.806Z,39.42
2018-07-05T10:18:22.905Z,39.24
2018-07-05T10:23:25.778Z,39.27
2018-07-05T10:28:28.659Z,39.26
2018-07-05T10:33:46.401Z,38.71
2018-07-05T10:38:49.297Z,38.71
2018-07-05T10:44:10.673Z,39.59
2018-07-05T10:49:32.206Z,39.53
2018-07-05T10:54:53.604Z,40.26
2018-07-05T11:00:15.151Z,40.27
2018-07-05T11:05:36.654Z,39.74
2018-07-05T11:10:58.054Z,39.88
2018-07-05T11:16:19.571Z,39.80
2018-07-05T11:21:41.198Z,39.97
2018-07-05T11:27:02.550Z,40.39
2018-07-05T11:32:24.029Z,39.95
2018-07-05T11:37:45.380Z,40.03
2018-07-05T11:43:06.945Z,40.31
2018-07-05T11:48:28.257Z,40.22
2018-07-05T11:53:49.757Z,40.34
2018-07-05T11:59:11.166Z,40.27
2018-07-05T12:04:32.755Z,39.74
2018-07-05T12:09:48.277Z,40.20
2018-07-05T12:15:09.759Z,40.28
2018-07-05T12:20:31.217Z,40.43
2018-07-05T12:25:52.678Z,40.21
2018-07-05T12:31:14.331Z,40.00
2018-07-05T12:36:35.723Z,39.55
2018-07-05T12:41:57.102Z,39.71
2018-07-05T12:47:18.557Z,39.86
2018-07-05T12:52:39.960Z,40.30
2018-07-05T12:58:01.560Z,39.65
2018-07-05T13:03:23.141Z,39.66
2018-07-05T13:08:44.638Z,39.48
2018-07-05T13:14:06.054Z,40.16
2018-07-05T13:19:27.448Z,39.41
2018-07-05T13:24:48.866Z,39.33
2018-07-05T13:30:04.389Z,39.82
2018-07-05T13:35:25.981Z,39.98
2018-07-05T13:40:47.614Z,39.28
2018-07-05T13:46:08.991Z,39.12
2018-07-05T13:51:30.491Z,39.24
2018-07-05T13:56:51.943Z,39.22
2018-07-05T14:02:13.459Z,39.89
2018-07-05T14:07:35.021Z,39.97
2018-07-05T14:12:50.456Z,39.42
2018-07-05T14:18:11.932Z,40.05
2018-07-05T14:23:33.491Z,39.52
2018-07-05T14:28:54.920Z,39.51
2018-07-05T14:34:16.477Z,39.58
2018-07-05T14:39:38.001Z,39.74
2018-07-05T14:44:59.630Z,40.28
2018-07-05T14:50:21.107Z,40.33
2018-07-05T14:55:42.801Z,39.81
2018-07-05T15:01:04.084Z,39.39
2018-07-05T15:06:25.712Z,39.67
2018-07-05T15:11:46.946Z,39.54
2018-07-05T15:17:08.589Z,39.78
2018-07-05T15:22:30.308Z,39.34
2018-07-05T15:27:51.771Z,39.25
2018-07-05T15:33:13.090Z,39.84
2018-07-05T15:38:34.610Z,41.02
2018-07-05T15:43:56.030Z,40.09
2018-07-05T15:49:17.458Z,40.02
2018-07-05T15:54:38.910Z,39.75
2018-07-05T16:00:00.715Z,39.64
2018-07-05T16:05:22.385Z,39.47
2018-07-05T16:10:43.937Z,39.21
2018-07-05T16:16:05.402Z,39.45
2018-07-05T16:21:26.809Z,39.39
2018-07-05T16:26:48.466Z,39.54
2018-07-05T16:32:03.823Z,39.50
2018-07-05T16:37:25.313Z,39.17
2018-07-05T16:42:46.827Z,39.10
2018-07-05T16:48:08.389Z,38.91
2018-07-05T16:53:29.792Z,39.31
2018-07-05T16:58:45.353Z,39.86
2018-07-05T17:04:06.785Z,39.51
2018-07-05T17:09:28.396Z,39.84
2018-07-05T17:14:49.837Z,39.16
2018-07-05T17:20:11.495Z,39.24
2018-07-05T17:25:32.909Z,39.17
2018-07-05T17:30:54.444Z,39.58
2018-07-05T17:36:15.906Z,39.27
2018-07-05T17:41:37.382Z,39.78
2018-07-05T17:46:58.873Z,38.84
2018-07-05T17:52:20.316Z,38.92
2018-07-05T17:57:41.950Z,39.57
2018-07-05T18:03:03.529Z,39.45
2018-07-05T18:08:24.883Z,38.95
2018-07-05T18:13:46.504Z,39.14
2018-07-05T18:19:08.098Z,38.95
2018-07-05T18:24:23.425Z,39.81
2018-07-05T18:29:44.795Z,38.95
2018-07-05T18:35:06.320Z,39.59
2018-07-05T18:40:27.926Z,40.33
2018-07-05T18:45:49.262Z,40.93
2018-07-05T18:51:10.752Z,42.94
2018-07-05T18:56:32.068Z,42.44
2018-07-05T19:01:53.582Z,40.96
2018-07-05T19:07:15.113Z,42.37
2018-07-05T19:12:36.636Z,42.23
2018-07-05T19:17:58.189Z,42.33
2018-07-05T19:23:19.523Z,43.05
2018-07-05T19:28:40.893Z,41.99
2018-07-05T19:34:02.455Z,43.33
2018-07-05T19:39:23.982Z,45.13
2018-07-05T19:44:45.397Z,45.13
2018-07-05T19:50:06.718Z,44.50
2018-07-05T19:55:28.379Z,44.96
2018-07-05T20:00:49.844Z,45.08
2018-07-05T20:06:11.352Z,44.97
2018-07-05T20:11:32.964Z,44.64
2018-07-05T20:16:54.375Z,44.66
2018-07-05T20:22:18.958Z,44.51
2018-07-05T20:27:41.612Z,43.88
2018-07-05T20:33:03.130Z,43.64
2018-07-05T20:38:24.814Z,44.44
2018-07-05T20:43:46.621Z,44.43
2018-07-05T20:49:08.110Z,44.25
2018-07-05T20:54:29.380Z,44.77
2018-07-05T20:59:50.758Z,44.26
2018-07-05T21:05:12.772Z,44.89
2018-07-05T21:10:34.428Z,44.27
2018-07-05T21:15:55.910Z,44.92
2018-07-05T21:21:17.375Z,44.61
2018-07-05T21:26:38.834Z,44.02
2018-07-05T21:32:00.534Z,44.41
2018-07-05T21:37:16.162Z,44.51
2018-07-05T21:42:38.067Z,44.00
2018-07-05T21:47:59.631Z,43.97
2018-07-05T21:53:15.556Z,43.48
2018-07-05T21:58:37.011Z,44.19
2018-07-05T22:03:58.836Z,43.64
2018-07-05T22:09:20.459Z,43.70
2018-07-05T22:14:36.073Z,43.75
2018-07-05T22:20:02.832Z,44.00
2018-07-05T22:25:24.675Z,44.05
2018-07-05T22:30:51.456Z,43.99
2018-07-05T22:36:13.459Z,44.17
2018-07-05T22:41:28.812Z,43.62
2018-07-05T22:46:50.418Z,43.63
2018-07-05T22:52:11.958Z,43.59
2018-07-05T22:57:33.599Z,44.14
2018-07-05T23:02:55.109Z,44.46
2018-07-05T23:08:16.572Z,44.17
2018-07-05T23:13:38.082Z,44.83
2018-07-05T23:18:59.741Z,44.83
2018-07-05T23:24:21.032Z,45.17
2018-07-05T23:29:42.573Z,45.10
2018-07-05T23:35:04.085Z,45.03
2018-07-05T23:40:25.577Z,44.86
2018-07-05T23:45:47.131Z,45.62
2018-07-05T23:51:08.879Z,45.34
2018-07-05T23:56:30.486Z,45.07
